sensor_id;sensor_type;location;lat;lon;timestamp;P1;durP1;ratioP1;P2;durP2;ratioP2
60847;SDS011;46681;47.696;9.140;2022-08-21T00:01:06;4.75;;;1.42;;
60847;SDS011;46681;47.696;9.140;2022-08-21T00:03:38;4.18;;;1.60;;
60847;SDS011;46681;47.696;9.140;2022-08-21T00:06:34;4.35;;;1.55;;
60847;SDS011;46681;47.696;9.140;2022-08-21T00:09:01;5.53;;;1.60;;
60847;SDS011;46681;47.696;9.140;2022-08-21T00:11:31;5.68;;;1.80;;
60847;SDS011;46681;47.696;9.140;2022-08-21T00:14:04;5.82;;;1.50;;
60847;SDS011;46681;47.696;9.140;2022-08-21T00:16:35;4.70;;;1.50;;
60847;SDS011;46681;47.696;9.140;2022-08-21T00:19:24;3.83;;;1.60;;
60847;SDS011;46681;47.696;9.140;2022-08-21T00:22:17;4.53;;;1.58;;
60847;SDS011;46681;47.696;9.140;2022-08-21T00:25:12;3.90;;;1.55;;
60847;SDS011;46681;47.696;9.140;2022-08-21T00:28:01;4.25;;;1.60;;
60847;SDS011;46681;47.696;9.140;2022-08-21T00:33:08;3.33;;;1.40;;
60847;SDS011;46681;47.696;9.140;2022-08-21T00:35:39;3.55;;;1.40;;
60847;SDS011;46681;47.696;9.140;2022-08-21T00:38:18;3.25;;;1.42;;
60847;SDS011;46681;47.696;9.140;2022-08-21T00:43:44;4.35;;;1.63;;
60847;SDS011;46681;47.696;9.140;2022-08-21T00:46:19;3.38;;;1.40;;
60847;SDS011;46681;47.696;9.140;2022-08-21T00:48:47;5.75;;;1.80;;
60847;SDS011;46681;47.696;9.140;2022-08-21T00:51:33;5.60;;;1.73;;
60847;SDS011;46681;47.696;9.140;2022-08-21T00:56:30;4.00;;;1.60;;
60847;SDS011;46681;47.696;9.140;2022-08-21T00:59:01;5.22;;;1.70;;
60847;SDS011;46681;47.696;9.140;2022-08-21T01:04:32;6.40;;;1.90;;
60847;SDS011;46681;47.696;9.140;2022-08-21T01:07:04;5.22;;;1.90;;
60847;SDS011;46681;47.696;9.140;2022-08-21T01:09:42;6.57;;;2.15;;
60847;SDS011;46681;47.696;9.140;2022-08-21T01:12:08;3.70;;;1.58;;
60847;SDS011;46681;47.696;9.140;2022-08-21T01:14:34;4.25;;;1.60;;
60847;SDS011;46681;47.696;9.140;2022-08-21T01:17:02;5.10;;;1.70;;
60847;SDS011;46681;47.696;9.140;2022-08-21T01:19:38;5.30;;;1.85;;
60847;SDS011;46681;47.696;9.140;2022-08-21T01:22:17;5.45;;;1.80;;
60847;SDS011;46681;47.696;9.140;2022-08-21T01:24:43;4.68;;;1.85;;
60847;SDS011;46681;47.696;9.140;2022-08-21T01:27:11;4.70;;;1.80;;
60847;SDS011;46681;47.696;9.140;2022-08-21T01:32:07;5.50;;;1.77;;
60847;SDS011;46681;47.696;9.140;2022-08-21T01:34:42;5.80;;;2.00;;
60847;SDS011;46681;47.696;9.140;2022-08-21T01:37:20;6.43;;;2.00;;
60847;SDS011;46681;47.696;9.140;2022-08-21T01:40:02;6.88;;;1.90;;
60847;SDS011;46681;47.696;9.140;2022-08-21T01:45:24;6.78;;;1.98;;
60847;SDS011;46681;47.696;9.140;2022-08-21T01:47:50;5.32;;;1.80;;
60847;SDS011;46681;47.696;9.140;2022-08-21T01:50:20;4.88;;;1.65;;
60847;SDS011;46681;47.696;9.140;2022-08-21T01:55:33;4.28;;;1.63;;
60847;SDS011;46681;47.696;9.140;2022-08-21T01:58:19;4.93;;;1.70;;
60847;SDS011;46681;47.696;9.140;2022-08-21T02:00:52;3.95;;;1.60;;
60847;SDS011;46681;47.696;9.140;2022-08-21T02:03:35;4.38;;;1.65;;
60847;SDS011;46681;47.696;9.140;2022-08-21T02:06:05;5.82;;;1.90;;
60847;SDS011;46681;47.696;9.140;2022-08-21T02:13:54;4.20;;;1.70;;
60847;SDS011;46681;47.696;9.140;2022-08-21T02:16:22;5.75;;;1.90;;
60847;SDS011;46681;47.696;9.140;2022-08-21T02:19:00;5.90;;;1.67;;
60847;SDS011;46681;47.696;9.140;2022-08-21T02:21:36;5.10;;;1.77;;
60847;SDS011;46681;47.696;9.140;2022-08-21T02:24:02;5.85;;;1.95;;
60847;SDS011;46681;47.696;9.140;2022-08-21T02:26:38;5.65;;;2.00;;
60847;SDS011;46681;47.696;9.140;2022-08-21T02:29:09;5.32;;;1.70;;
60847;SDS011;46681;47.696;9.140;2022-08-21T02:31:51;5.28;;;1.85;;
60847;SDS011;46681;47.696;9.140;2022-08-21T02:34:49;6.03;;;1.77;;
60847;SDS011;46681;47.696;9.140;2022-08-21T02:37:42;5.03;;;1.80;;
60847;SDS011;46681;47.696;9.140;2022-08-21T02:40:19;5.95;;;2.00;;
60847;SDS011;46681;47.696;9.140;2022-08-21T02:42:50;5.80;;;2.00;;
60847;SDS011;46681;47.696;9.140;2022-08-21T02:45:17;5.93;;;1.90;;
60847;SDS011;46681;47.696;9.140;2022-08-21T02:47:49;6.05;;;2.20;;
60847;SDS011;46681;47.696;9.140;2022-08-21T02:50:23;5.13;;;1.70;;
60847;SDS011;46681;47.696;9.140;2022-08-21T02:52:58;5.28;;;1.83;;
60847;SDS011;46681;47.696;9.140;2022-08-21T02:55:30;6.30;;;1.98;;
60847;SDS011;46681;47.696;9.140;2022-08-21T02:58:04;6.35;;;2.13;;
60847;SDS011;46681;47.696;9.140;2022-08-21T03:00:35;5.97;;;1.90;;
60847;SDS011;46681;47.696;9.140;2022-08-21T03:03:17;5.28;;;1.95;;
60847;SDS011;46681;47.696;9.140;2022-08-21T03:05:55;6.05;;;2.00;;
60847;SDS011;46681;47.696;9.140;2022-08-21T03:08:31;4.63;;;1.80;;
60847;SDS011;46681;47.696;9.140;2022-08-21T03:11:03;6.18;;;2.00;;
60847;SDS011;46681;47.696;9.140;2022-08-21T03:13:32;5.90;;;2.08;;
60847;SDS011;46681;47.696;9.140;2022-08-21T03:16:01;6.35;;;2.00;;
60847;SDS011;46681;47.696;9.140;2022-08-21T03:18:32;5.85;;;2.10;;
60847;SDS011;46681;47.696;9.140;2022-08-21T03:21:05;5.45;;;1.90;;
60847;SDS011;46681;47.696;9.140;2022-08-21T03:23:36;6.05;;;1.90;;
60847;SDS011;46681;47.696;9.140;2022-08-21T03:26:32;5.68;;;1.90;;
60847;SDS011;46681;47.696;9.140;2022-08-21T03:29:09;6.20;;;1.88;;
60847;SDS011;46681;47.696;9.140;2022-08-21T03:31:34;5.30;;;1.80;;
60847;SDS011;46681;47.696;9.140;2022-08-21T03:34:03;6.10;;;2.10;;
60847;SDS011;46681;47.696;9.140;2022-08-21T03:36:43;4.50;;;1.80;;
60847;SDS011;46681;47.696;9.140;2022-08-21T03:41:55;4.97;;;1.77;;
60847;SDS011;46681;47.696;9.140;2022-08-21T03:44:23;5.82;;;1.90;;
60847;SDS011;46681;47.696;9.140;2022-08-21T03:46:54;5.63;;;1.90;;
60847;SDS011;46681;47.696;9.140;2022-08-21T03:49:34;6.00;;;1.90;;
60847;SDS011;46681;47.696;9.140;2022-08-21T03:52:02;5.10;;;1.85;;
60847;SDS011;46681;47.696;9.140;2022-08-21T03:54:41;5.65;;;1.95;;
60847;SDS011;46681;47.696;9.140;2022-08-21T03:57:22;6.43;;;2.15;;
60847;SDS011;46681;47.696;9.140;2022-08-21T03:59:50;6.43;;;2.10;;
60847;SDS011;46681;47.696;9.140;2022-08-21T04:02:21;6.32;;;2.00;;
60847;SDS011;46681;47.696;9.140;2022-08-21T04:04:50;4.88;;;1.88;;
60847;SDS011;46681;47.696;9.140;2022-08-21T04:07:17;5.50;;;1.90;;
60847;SDS011;46681;47.696;9.140;2022-08-21T04:09:46;5.72;;;1.90;;
60847;SDS011;46681;47.696;9.140;2022-08-21T04:12:19;6.22;;;2.00;;
60847;SDS011;46681;47.696;9.140;2022-08-21T04:14:45;5.97;;;1.88;;
60847;SDS011;46681;47.696;9.140;2022-08-21T04:17:14;5.55;;;1.80;;
60847;SDS011;46681;47.696;9.140;2022-08-21T04:19:40;5.57;;;1.90;;
60847;SDS011;46681;47.696;9.140;2022-08-21T04:22:17;5.22;;;1.90;;
60847;SDS011;46681;47.696;9.140;2022-08-21T04:24:48;5.50;;;1.77;;
60847;SDS011;46681;47.696;9.140;2022-08-21T04:27:21;5.43;;;1.90;;
60847;SDS011;46681;47.696;9.140;2022-08-21T04:29:56;6.00;;;1.90;;
60847;SDS011;46681;47.696;9.140;2022-08-21T04:32:24;4.75;;;1.70;;
60847;SDS011;46681;47.696;9.140;2022-08-21T04:35:04;5.65;;;1.90;;
60847;SDS011;46681;47.696;9.140;2022-08-21T04:37:34;6.23;;;1.90;;
60847;SDS011;46681;47.696;9.140;2022-08-21T04:40:17;5.30;;;1.65;;
60847;SDS011;46681;47.696;9.140;2022-08-21T04:42:48;5.05;;;1.80;;
60847;SDS011;46681;47.696;9.140;2022-08-21T04:45:24;5.57;;;1.98;;
60847;SDS011;46681;47.696;9.140;2022-08-21T04:48:10;6.25;;;2.08;;
60847;SDS011;46681;47.696;9.140;2022-08-21T04:50:58;5.60;;;1.90;;
60847;SDS011;46681;47.696;9.140;2022-08-21T04:56:30;5.35;;;1.90;;
60847;SDS011;46681;47.696;9.140;2022-08-21T04:59:16;6.20;;;1.90;;
60847;SDS011;46681;47.696;9.140;2022-08-21T05:01:47;7.15;;;2.00;;
60847;SDS011;46681;47.696;9.140;2022-08-21T05:04:22;5.68;;;1.98;;
60847;SDS011;46681;47.696;9.140;2022-08-21T05:07:06;5.60;;;1.90;;
60847;SDS011;46681;47.696;9.140;2022-08-21T05:09:52;6.78;;;2.00;;
60847;SDS011;46681;47.696;9.140;2022-08-21T05:12:22;5.13;;;1.77;;
60847;SDS011;46681;47.696;9.140;2022-08-21T05:15:02;5.80;;;2.00;;
60847;SDS011;46681;47.696;9.140;2022-08-21T05:17:33;6.43;;;2.05;;
60847;SDS011;46681;47.696;9.140;2022-08-21T05:20:05;5.55;;;1.80;;
60847;SDS011;46681;47.696;9.140;2022-08-21T05:22:44;5.88;;;1.98;;
60847;SDS011;46681;47.696;9.140;2022-08-21T05:25:30;6.25;;;2.10;;
60847;SDS011;46681;47.696;9.140;2022-08-21T05:28:01;6.55;;;2.20;;
60847;SDS011;46681;47.696;9.140;2022-08-21T05:30:37;6.85;;;2.20;;
60847;SDS011;46681;47.696;9.140;2022-08-21T05:33:11;4.82;;;1.70;;
60847;SDS011;46681;47.696;9.140;2022-08-21T05:35:54;6.47;;;2.00;;
60847;SDS011;46681;47.696;9.140;2022-08-21T05:38:24;5.63;;;1.83;;
60847;SDS011;46681;47.696;9.140;2022-08-21T05:40:52;4.63;;;1.70;;
60847;SDS011;46681;47.696;9.140;2022-08-21T05:43:18;5.70;;;1.90;;
60847;SDS011;46681;47.696;9.140;2022-08-21T05:45:49;5.97;;;1.90;;
60847;SDS011;46681;47.696;9.140;2022-08-21T05:48:24;5.88;;;1.90;;
60847;SDS011;46681;47.696;9.140;2022-08-21T05:53:57;6.30;;;1.98;;
60847;SDS011;46681;47.696;9.140;2022-08-21T05:56:25;6.00;;;1.90;;
60847;SDS011;46681;47.696;9.140;2022-08-21T05:58:51;6.03;;;2.20;;
60847;SDS011;46681;47.696;9.140;2022-08-21T06:01:32;6.35;;;2.10;;
60847;SDS011;46681;47.696;9.140;2022-08-21T06:04:18;5.68;;;1.90;;
60847;SDS011;46681;47.696;9.140;2022-08-21T06:07:30;5.25;;;1.85;;
60847;SDS011;46681;47.696;9.140;2022-08-21T06:10:42;4.72;;;1.77;;
60847;SDS011;46681;47.696;9.140;2022-08-21T06:13:34;7.00;;;2.17;;
60847;SDS011;46681;47.696;9.140;2022-08-21T06:16:36;5.60;;;1.90;;
60847;SDS011;46681;47.696;9.140;2022-08-21T06:35:03;5.40;;;1.80;;
60847;SDS011;46681;47.696;9.140;2022-08-21T06:54:03;6.43;;;2.03;;
60847;SDS011;46681;47.696;9.140;2022-08-21T06:56:53;5.85;;;2.05;;
60847;SDS011;46681;47.696;9.140;2022-08-21T08:11:53;5.93;;;1.50;;
60847;SDS011;46681;47.696;9.140;2022-08-21T08:31:05;6.13;;;1.60;;
60847;SDS011;46681;47.696;9.140;2022-08-21T08:34:05;6.32;;;1.50;;
60847;SDS011;46681;47.696;9.140;2022-08-21T08:36:59;6.25;;;1.63;;
60847;SDS011;46681;47.696;9.140;2022-08-21T08:39:46;6.78;;;1.58;;
60847;SDS011;46681;47.696;9.140;2022-08-21T08:42:34;5.35;;;1.50;;
60847;SDS011;46681;47.696;9.140;2022-08-21T08:45:26;4.72;;;1.50;;
60847;SDS011;46681;47.696;9.140;2022-08-21T08:48:29;6.18;;;1.80;;
60847;SDS011;46681;47.696;9.140;2022-08-21T08:51:39;5.07;;;1.63;;
60847;SDS011;46681;47.696;9.140;2022-08-21T08:57:52;5.25;;;1.70;;
60847;SDS011;46681;47.696;9.140;2022-08-21T09:00:35;4.80;;;1.50;;
60847;SDS011;46681;47.696;9.140;2022-08-21T09:07:18;6.85;;;1.55;;
60847;SDS011;46681;47.696;9.140;2022-08-21T09:45:04;6.75;;;1.80;;
60847;SDS011;46681;47.696;9.140;2022-08-21T09:51:22;6.47;;;2.10;;
60847;SDS011;46681;47.696;9.140;2022-08-21T10:07:43;7.32;;;1.80;;
60847;SDS011;46681;47.696;9.140;2022-08-21T13:39:47;3.92;;;1.10;;
60847;SDS011;46681;47.696;9.140;2022-08-21T13:49:01;1.88;;;0.98;;
60847;SDS011;46681;47.696;9.140;2022-08-21T14:13:49;2.22;;;0.90;;
60847;SDS011;46681;47.696;9.140;2022-08-21T14:29:24;12.70;;;1.73;;
60847;SDS011;46681;47.696;9.140;2022-08-21T14:35:39;8.52;;;1.40;;
60847;SDS011;46681;47.696;9.140;2022-08-21T14:41:56;5.22;;;1.23;;
60847;SDS011;46681;47.696;9.140;2022-08-21T15:46:19;2.92;;;1.08;;
60847;SDS011;46681;47.696;9.140;2022-08-21T16:01:55;5.00;;;1.27;;
60847;SDS011;46681;47.696;9.140;2022-08-21T16:17:51;4.30;;;1.10;;
60847;SDS011;46681;47.696;9.140;2022-08-21T16:20:54;4.63;;;1.13;;
60847;SDS011;46681;47.696;9.140;2022-08-21T16:27:03;3.72;;;1.10;;
60847;SDS011;46681;47.696;9.140;2022-08-21T17:01:38;3.67;;;1.10;;
60847;SDS011;46681;47.696;9.140;2022-08-21T17:26:17;3.00;;;1.15;;
60847;SDS011;46681;47.696;9.140;2022-08-21T17:35:47;4.90;;;1.27;;
60847;SDS011;46681;47.696;9.140;2022-08-21T17:54:53;4.68;;;1.20;;
60847;SDS011;46681;47.696;9.140;2022-08-21T18:07:52;4.95;;;1.20;;
60847;SDS011;46681;47.696;9.140;2022-08-21T18:17:17;4.80;;;1.40;;
60847;SDS011;46681;47.696;9.140;2022-08-21T18:23:29;4.53;;;1.38;;
60847;SDS011;46681;47.696;9.140;2022-08-21T18:42:58;5.00;;;1.50;;
60847;SDS011;46681;47.696;9.140;2022-08-21T18:46:00;6.90;;;1.50;;
60847;SDS011;46681;47.696;9.140;2022-08-21T18:52:12;5.38;;;1.50;;
60847;SDS011;46681;47.696;9.140;2022-08-21T18:54:54;4.50;;;1.30;;
60847;SDS011;46681;47.696;9.140;2022-08-21T18:57:45;4.90;;;1.50;;
60847;SDS011;46681;47.696;9.140;2022-08-21T19:01:03;4.93;;;1.40;;
60847;SDS011;46681;47.696;9.140;2022-08-21T19:04:20;3.63;;;1.20;;
60847;SDS011;46681;47.696;9.140;2022-08-21T19:14:01;5.00;;;1.50;;
60847;SDS011;46681;47.696;9.140;2022-08-21T19:17:13;4.28;;;1.20;;
60847;SDS011;46681;47.696;9.140;2022-08-21T19:20:15;3.38;;;1.25;;
60847;SDS011;46681;47.696;9.140;2022-08-21T19:26:29;4.72;;;1.50;;
60847;SDS011;46681;47.696;9.140;2022-08-21T19:32:33;4.95;;;1.40;;
60847;SDS011;46681;47.696;9.140;2022-08-21T19:35:15;4.05;;;1.33;;
60847;SDS011;46681;47.696;9.140;2022-08-21T19:40:57;4.38;;;1.30;;
60847;SDS011;46681;47.696;9.140;2022-08-21T19:43:51;4.50;;;1.30;;
60847;SDS011;46681;47.696;9.140;2022-08-21T19:46:48;2.90;;;1.30;;
60847;SDS011;46681;47.696;9.140;2022-08-21T19:49:22;2.60;;;1.23;;
60847;SDS011;46681;47.696;9.140;2022-08-21T19:55:09;4.57;;;1.40;;
60847;SDS011;46681;47.696;9.140;2022-08-21T19:57:58;5.47;;;1.40;;
60847;SDS011;46681;47.696;9.140;2022-08-21T20:00:47;3.45;;;1.35;;
60847;SDS011;46681;47.696;9.140;2022-08-21T20:03:24;4.57;;;1.50;;
60847;SDS011;46681;47.696;9.140;2022-08-21T20:09:15;5.45;;;1.50;;
60847;SDS011;46681;47.696;9.140;2022-08-21T20:11:53;3.95;;;1.30;;
60847;SDS011;46681;47.696;9.140;2022-08-21T20:14:46;3.88;;;1.40;;
60847;SDS011;46681;47.696;9.140;2022-08-21T20:17:35;3.97;;;1.27;;
60847;SDS011;46681;47.696;9.140;2022-08-21T20:20:35;4.82;;;1.40;;
60847;SDS011;46681;47.696;9.140;2022-08-21T20:23:13;5.38;;;1.52;;
60847;SDS011;46681;47.696;9.140;2022-08-21T20:25:59;2.63;;;1.10;;
60847;SDS011;46681;47.696;9.140;2022-08-21T20:28:47;5.13;;;1.50;;
60847;SDS011;46681;47.696;9.140;2022-08-21T20:31:26;4.57;;;1.30;;
60847;SDS011;46681;47.696;9.140;2022-08-21T20:34:10;4.88;;;1.40;;
60847;SDS011;46681;47.696;9.140;2022-08-21T20:36:49;2.85;;;1.27;;
60847;SDS011;46681;47.696;9.140;2022-08-21T20:39:28;2.70;;;1.13;;
60847;SDS011;46681;47.696;9.140;2022-08-21T20:42:05;4.47;;;1.27;;
60847;SDS011;46681;47.696;9.140;2022-08-21T20:44:52;3.65;;;1.30;;
60847;SDS011;46681;47.696;9.140;2022-08-21T20:48:49;4.28;;;1.33;;
60847;SDS011;46681;47.696;9.140;2022-08-21T20:51:09;4.60;;;1.50;;
60847;SDS011;46681;47.696;9.140;2022-08-21T20:59:56;5.82;;;1.40;;
60847;SDS011;46681;47.696;9.140;2022-08-21T21:11:16;3.55;;;1.30;;
60847;SDS011;46681;47.696;9.140;2022-08-21T21:13:48;4.57;;;1.40;;
60847;SDS011;46681;47.696;9.140;2022-08-21T21:22:32;3.40;;;1.25;;
60847;SDS011;46681;47.696;9.140;2022-08-21T21:28:26;3.97;;;1.33;;
60847;SDS011;46681;47.696;9.140;2022-08-21T21:30:56;3.75;;;1.30;;
60847;SDS011;46681;47.696;9.140;2022-08-21T21:33:28;4.32;;;1.35;;
60847;SDS011;46681;47.696;9.140;2022-08-21T21:35:58;5.13;;;1.48;;
60847;SDS011;46681;47.696;9.140;2022-08-21T21:45:48;6.32;;;1.42;;
60847;SDS011;46681;47.696;9.140;2022-08-21T22:14:12;4.40;;;1.40;;
60847;SDS011;46681;47.696;9.140;2022-08-21T22:17:05;4.82;;;1.45;;
60847;SDS011;46681;47.696;9.140;2022-08-21T22:19:56;4.53;;;1.50;;
60847;SDS011;46681;47.696;9.140;2022-08-21T22:22:29;4.00;;;1.30;;
60847;SDS011;46681;47.696;9.140;2022-08-21T22:25:26;4.35;;;1.45;;
60847;SDS011;46681;47.696;9.140;2022-08-21T22:28:10;3.92;;;1.50;;
60847;SDS011;46681;47.696;9.140;2022-08-21T22:36:55;5.28;;;1.50;;
60847;SDS011;46681;47.696;9.140;2022-08-21T22:39:46;4.75;;;1.40;;
60847;SDS011;46681;47.696;9.140;2022-08-21T22:42:25;4.25;;;1.50;;
60847;SDS011;46681;47.696;9.140;2022-08-21T22:45:00;3.40;;;1.40;;
60847;SDS011;46681;47.696;9.140;2022-08-21T22:47:46;6.20;;;1.58;;
60847;SDS011;46681;47.696;9.140;2022-08-21T22:52:51;5.22;;;1.60;;
60847;SDS011;46681;47.696;9.140;2022-08-21T22:58:58;4.80;;;1.50;;
60847;SDS011;46681;47.696;9.140;2022-08-21T23:04:15;5.10;;;1.50;;
60847;SDS011;46681;47.696;9.140;2022-08-21T23:07:04;4.25;;;1.40;;
60847;SDS011;46681;47.696;9.140;2022-08-21T23:09:57;4.32;;;1.50;;
60847;SDS011;46681;47.696;9.140;2022-08-21T23:12:33;4.18;;;1.40;;
60847;SDS011;46681;47.696;9.140;2022-08-21T23:15:12;4.47;;;1.45;;
60847;SDS011;46681;47.696;9.140;2022-08-21T23:20:27;5.45;;;1.73;;
60847;SDS011;46681;47.696;9.140;2022-08-21T23:23:23;3.55;;;1.40;;
60847;SDS011;46681;47.696;9.140;2022-08-21T23:32:02;6.10;;;1.73;;
60847;SDS011;46681;47.696;9.140;2022-08-21T23:34:44;4.97;;;1.58;;
60847;SDS011;46681;47.696;9.140;2022-08-21T23:38:02;2.97;;;1.40;;
60847;SDS011;46681;47.696;9.140;2022-08-21T23:40:49;3.90;;;1.50;;
60847;SDS011;46681;47.696;9.140;2022-08-21T23:58:30;4.05;;;1.50;;
